sensor_id;sensor_type;location;lat;lon;timestamp;temperature;humidity
70456;DHT22;57916;51.996;5.180;2023-02-22T00:01:33;10.40;74.90
70456;DHT22;57916;51.996;5.180;2023-02-22T00:04:17;10.40;74.90
70456;DHT22;57916;51.996;5.180;2023-02-22T00:06:47;10.30;75.00
70456;DHT22;57916;51.996;5.180;2023-02-22T00:09:15;10.40;75.20
70456;DHT22;57916;51.996;5.180;2023-02-22T00:11:47;10.30;75.10
70456;DHT22;57916;51.996;5.180;2023-02-22T00:14:15;10.40;75.10
70456;DHT22;57916;51.996;5.180;2023-02-22T00:16:46;10.30;75.00
70456;DHT22;57916;51.996;5.180;2023-02-22T00:19:13;10.30;75.20
70456;DHT22;57916;51.996;5.180;2023-02-22T00:21:39;10.40;75.30
70456;DHT22;57916;51.996;5.180;2023-02-22T00:24:06;10.40;75.30
70456;DHT22;57916;51.996;5.180;2023-02-22T00:26:50;10.40;75.20
70456;DHT22;57916;51.996;5.180;2023-02-22T00:29:17;10.30;75.30
70456;DHT22;57916;51.996;5.180;2023-02-22T00:31:44;10.30;75.50
70456;DHT22;57916;51.996;5.180;2023-02-22T00:34:12;10.30;75.60
70456;DHT22;57916;51.996;5.180;2023-02-22T00:36:49;10.30;75.50
70456;DHT22;57916;51.996;5.180;2023-02-22T00:39:16;10.40;75.70
70456;DHT22;57916;51.996;5.180;2023-02-22T00:41:43;10.50;75.60
70456;DHT22;57916;51.996;5.180;2023-02-22T00:44:11;10.50;75.40
70456;DHT22;57916;51.996;5.180;2023-02-22T00:46:38;10.50;75.50
70456;DHT22;57916;51.996;5.180;2023-02-22T00:49:05;10.40;75.00
70456;DHT22;57916;51.996;5.180;2023-02-22T00:51:32;10.40;74.70
70456;DHT22;57916;51.996;5.180;2023-02-22T00:53:59;10.30;74.30
70456;DHT22;57916;51.996;5.180;2023-02-22T00:56:26;10.30;74.40
70456;DHT22;57916;51.996;5.180;2023-02-22T00:58:53;10.20;74.50
70456;DHT22;57916;51.996;5.180;2023-02-22T01:01:20;10.20;74.50
70456;DHT22;57916;51.996;5.180;2023-02-22T01:03:49;10.20;74.80
70456;DHT22;57916;51.996;5.180;2023-02-22T01:06:16;10.20;74.80
70456;DHT22;57916;51.996;5.180;2023-02-22T01:08:44;10.20;74.70
70456;DHT22;57916;51.996;5.180;2023-02-22T01:11:12;10.10;74.80
70456;DHT22;57916;51.996;5.180;2023-02-22T01:13:41;10.00;74.70
70456;DHT22;57916;51.996;5.180;2023-02-22T01:16:10;10.00;74.80
70456;DHT22;57916;51.996;5.180;2023-02-22T01:18:37;9.90;74.90
70456;DHT22;57916;51.996;5.180;2023-02-22T01:21:05;9.90;75.10
70456;DHT22;57916;51.996;5.180;2023-02-22T01:23:32;9.90;75.20
70456;DHT22;57916;51.996;5.180;2023-02-22T01:25:59;9.90;75.30
70456;DHT22;57916;51.996;5.180;2023-02-22T01:28:28;9.90;75.30
70456;DHT22;57916;51.996;5.180;2023-02-22T01:30:54;9.90;75.10
70456;DHT22;57916;51.996;5.180;2023-02-22T01:33:23;9.90;75.10
70456;DHT22;57916;51.996;5.180;2023-02-22T01:35:51;9.90;75.00
70456;DHT22;57916;51.996;5.180;2023-02-22T01:38:18;10.00;75.10
70456;DHT22;57916;51.996;5.180;2023-02-22T01:40:49;10.00;75.20
70456;DHT22;57916;51.996;5.180;2023-02-22T01:43:23;10.00;74.80
70456;DHT22;57916;51.996;5.180;2023-02-22T01:51:31;9.90;74.70
70456;DHT22;57916;51.996;5.180;2023-02-22T01:54:10;10.00;74.70
70456;DHT22;57916;51.996;5.180;2023-02-22T01:56:45;10.00;74.70
70456;DHT22;57916;51.996;5.180;2023-02-22T01:59:13;9.90;74.60
70456;DHT22;57916;51.996;5.180;2023-02-22T02:01:41;9.90;74.60
70456;DHT22;57916;51.996;5.180;2023-02-22T02:04:15;9.90;74.60
70456;DHT22;57916;51.996;5.180;2023-02-22T02:06:43;9.90;74.60
70456;DHT22;57916;51.996;5.180;2023-02-22T02:12:02;9.80;74.60
70456;DHT22;57916;51.996;5.180;2023-02-22T02:14:31;9.80;74.70
70456;DHT22;57916;51.996;5.180;2023-02-22T02:16:58;9.80;74.80
70456;DHT22;57916;51.996;5.180;2023-02-22T02:27:35;9.70;74.60
70456;DHT22;57916;51.996;5.180;2023-02-22T02:30:40;9.70;74.50
70456;DHT22;57916;51.996;5.180;2023-02-22T02:33:18;9.70;74.50
70456;DHT22;57916;51.996;5.180;2023-02-22T02:36:03;9.60;74.30
70456;DHT22;57916;51.996;5.180;2023-02-22T02:41:25;9.60;74.40
70456;DHT22;57916;51.996;5.180;2023-02-22T02:44:02;9.50;74.50
70456;DHT22;57916;51.996;5.180;2023-02-22T02:46:34;9.50;74.70
70456;DHT22;57916;51.996;5.180;2023-02-22T02:49:07;9.50;74.90
70456;DHT22;57916;51.996;5.180;2023-02-22T02:51:41;9.50;75.00
70456;DHT22;57916;51.996;5.180;2023-02-22T02:54:10;9.50;75.10
70456;DHT22;57916;51.996;5.180;2023-02-22T02:56:41;9.50;75.10
70456;DHT22;57916;51.996;5.180;2023-02-22T02:59:34;9.50;75.10
70456;DHT22;57916;51.996;5.180;2023-02-22T03:04:51;9.30;74.90
70456;DHT22;57916;51.996;5.180;2023-02-22T03:19:09;9.30;75.70
70456;DHT22;57916;51.996;5.180;2023-02-22T03:21:30;9.30;75.80
70456;DHT22;57916;51.996;5.180;2023-02-22T03:24:17;9.30;75.90
70456;DHT22;57916;51.996;5.180;2023-02-22T03:29:59;9.20;76.00
70456;DHT22;57916;51.996;5.180;2023-02-22T03:32:36;9.30;76.20
70456;DHT22;57916;51.996;5.180;2023-02-22T03:35:11;9.20;76.00
70456;DHT22;57916;51.996;5.180;2023-02-22T03:37:44;9.20;76.20
70456;DHT22;57916;51.996;5.180;2023-02-22T03:40:20;9.20;76.30
70456;DHT22;57916;51.996;5.180;2023-02-22T03:43:04;9.30;76.50
70456;DHT22;57916;51.996;5.180;2023-02-22T03:45:33;9.30;76.30
70456;DHT22;57916;51.996;5.180;2023-02-22T03:50:36;9.20;76.40
70456;DHT22;57916;51.996;5.180;2023-02-22T03:53:05;9.20;76.60
70456;DHT22;57916;51.996;5.180;2023-02-22T03:55:35;9.20;76.70
70456;DHT22;57916;51.996;5.180;2023-02-22T03:58:08;9.20;76.80
70456;DHT22;57916;51.996;5.180;2023-02-22T04:00:37;9.20;76.90
70456;DHT22;57916;51.996;5.180;2023-02-22T04:03:04;9.20;76.90
70456;DHT22;57916;51.996;5.180;2023-02-22T04:05:31;9.20;76.90
70456;DHT22;57916;51.996;5.180;2023-02-22T04:07:58;9.20;77.10
70456;DHT22;57916;51.996;5.180;2023-02-22T04:10:26;9.20;77.20
70456;DHT22;57916;51.996;5.180;2023-02-22T04:12:53;9.10;77.20
70456;DHT22;57916;51.996;5.180;2023-02-22T04:15:22;9.10;77.20
70456;DHT22;57916;51.996;5.180;2023-02-22T04:17:54;9.00;77.30
70456;DHT22;57916;51.996;5.180;2023-02-22T04:20:21;9.00;77.50
70456;DHT22;57916;51.996;5.180;2023-02-22T04:22:54;9.00;78.50
70456;DHT22;57916;51.996;5.180;2023-02-22T04:25:22;9.00;77.80
70456;DHT22;57916;51.996;5.180;2023-02-22T04:27:50;9.10;78.10
70456;DHT22;57916;51.996;5.180;2023-02-22T04:30:21;9.10;77.80
70456;DHT22;57916;51.996;5.180;2023-02-22T04:32:49;9.10;77.60
70456;DHT22;57916;51.996;5.180;2023-02-22T04:35:19;9.10;77.70
70456;DHT22;57916;51.996;5.180;2023-02-22T04:37:46;9.10;77.70
70456;DHT22;57916;51.996;5.180;2023-02-22T04:40:15;9.10;77.70
70456;DHT22;57916;51.996;5.180;2023-02-22T04:42:42;9.10;77.90
70456;DHT22;57916;51.996;5.180;2023-02-22T04:45:10;9.10;77.80
70456;DHT22;57916;51.996;5.180;2023-02-22T04:47:38;9.10;77.80
70456;DHT22;57916;51.996;5.180;2023-02-22T04:50:07;9.10;78.10
70456;DHT22;57916;51.996;5.180;2023-02-22T04:52:34;9.10;78.10
70456;DHT22;57916;51.996;5.180;2023-02-22T04:55:01;9.00;78.20
70456;DHT22;57916;51.996;5.180;2023-02-22T04:57:28;9.00;78.20
70456;DHT22;57916;51.996;5.180;2023-02-22T04:59:55;9.00;78.50
70456;DHT22;57916;51.996;5.180;2023-02-22T05:02:23;8.90;78.50
70456;DHT22;57916;51.996;5.180;2023-02-22T05:04:50;8.90;78.80
70456;DHT22;57916;51.996;5.180;2023-02-22T05:07:17;9.00;78.90
70456;DHT22;57916;51.996;5.180;2023-02-22T05:09:44;9.00;78.80
70456;DHT22;57916;51.996;5.180;2023-02-22T05:12:11;9.00;78.80
70456;DHT22;57916;51.996;5.180;2023-02-22T05:14:38;9.00;78.50
70456;DHT22;57916;51.996;5.180;2023-02-22T05:17:05;8.90;78.50
70456;DHT22;57916;51.996;5.180;2023-02-22T05:19:32;8.90;78.70
70456;DHT22;57916;51.996;5.180;2023-02-22T05:21:58;8.90;79.00
70456;DHT22;57916;51.996;5.180;2023-02-22T05:24:25;8.90;79.20
70456;DHT22;57916;51.996;5.180;2023-02-22T05:26:52;8.80;79.30
70456;DHT22;57916;51.996;5.180;2023-02-22T05:29:19;8.80;79.40
70456;DHT22;57916;51.996;5.180;2023-02-22T05:31:46;8.80;79.40
70456;DHT22;57916;51.996;5.180;2023-02-22T05:34:14;8.70;79.30
70456;DHT22;57916;51.996;5.180;2023-02-22T05:36:41;8.70;79.40
70456;DHT22;57916;51.996;5.180;2023-02-22T05:39:08;8.70;79.50
70456;DHT22;57916;51.996;5.180;2023-02-22T05:41:35;8.60;79.60
70456;DHT22;57916;51.996;5.180;2023-02-22T05:44:02;8.60;79.90
70456;DHT22;57916;51.996;5.180;2023-02-22T05:46:28;8.60;80.30
70456;DHT22;57916;51.996;5.180;2023-02-22T05:48:55;8.60;80.30
70456;DHT22;57916;51.996;5.180;2023-02-22T05:51:22;8.60;80.50
70456;DHT22;57916;51.996;5.180;2023-02-22T05:53:49;8.70;80.50
70456;DHT22;57916;51.996;5.180;2023-02-22T05:56:25;8.70;80.40
70456;DHT22;57916;51.996;5.180;2023-02-22T05:58:53;8.80;80.20
70456;DHT22;57916;51.996;5.180;2023-02-22T06:01:20;8.70;80.00
70456;DHT22;57916;51.996;5.180;2023-02-22T06:03:48;8.70;80.10
70456;DHT22;57916;51.996;5.180;2023-02-22T06:06:16;8.70;80.00
70456;DHT22;57916;51.996;5.180;2023-02-22T06:08:46;8.70;80.10
70456;DHT22;57916;51.996;5.180;2023-02-22T06:11:13;8.60;80.30
70456;DHT22;57916;51.996;5.180;2023-02-22T06:13:40;8.60;80.50
70456;DHT22;57916;51.996;5.180;2023-02-22T06:16:07;8.60;80.60
70456;DHT22;57916;51.996;5.180;2023-02-22T06:18:34;8.70;80.80
70456;DHT22;57916;51.996;5.180;2023-02-22T06:21:01;8.60;80.80
70456;DHT22;57916;51.996;5.180;2023-02-22T06:23:28;8.60;80.80
70456;DHT22;57916;51.996;5.180;2023-02-22T06:25:54;8.60;80.90
70456;DHT22;57916;51.996;5.180;2023-02-22T06:28:21;8.60;80.90
70456;DHT22;57916;51.996;5.180;2023-02-22T06:30:49;8.70;81.00
70456;DHT22;57916;51.996;5.180;2023-02-22T06:33:16;8.70;81.20
70456;DHT22;57916;51.996;5.180;2023-02-22T06:35:43;8.70;81.10
70456;DHT22;57916;51.996;5.180;2023-02-22T06:38:10;8.80;80.90
70456;DHT22;57916;51.996;5.180;2023-02-22T06:40:37;8.70;80.70
70456;DHT22;57916;51.996;5.180;2023-02-22T06:43:04;8.80;80.90
70456;DHT22;57916;51.996;5.180;2023-02-22T06:45:31;8.80;80.90
70456;DHT22;57916;51.996;5.180;2023-02-22T06:47:58;8.80;80.80
70456;DHT22;57916;51.996;5.180;2023-02-22T06:50:27;8.80;80.60
70456;DHT22;57916;51.996;5.180;2023-02-22T06:52:55;8.80;80.60
70456;DHT22;57916;51.996;5.180;2023-02-22T06:55:33;8.80;80.70
70456;DHT22;57916;51.996;5.180;2023-02-22T06:58:01;8.80;80.60
70456;DHT22;57916;51.996;5.180;2023-02-22T07:00:30;8.90;80.60
70456;DHT22;57916;51.996;5.180;2023-02-22T07:02:58;8.90;80.50
70456;DHT22;57916;51.996;5.180;2023-02-22T07:05:26;8.90;80.50
70456;DHT22;57916;51.996;5.180;2023-02-22T07:07:55;8.90;80.20
70456;DHT22;57916;51.996;5.180;2023-02-22T07:10:25;8.90;80.20
70456;DHT22;57916;51.996;5.180;2023-02-22T07:12:52;8.80;80.30
70456;DHT22;57916;51.996;5.180;2023-02-22T07:15:24;8.90;80.30
70456;DHT22;57916;51.996;5.180;2023-02-22T07:17:51;8.90;80.40
70456;DHT22;57916;51.996;5.180;2023-02-22T07:20:19;8.80;80.40
70456;DHT22;57916;51.996;5.180;2023-02-22T07:22:47;8.80;80.60
70456;DHT22;57916;51.996;5.180;2023-02-22T07:25:14;8.80;80.50
70456;DHT22;57916;51.996;5.180;2023-02-22T07:27:41;8.90;80.50
70456;DHT22;57916;51.996;5.180;2023-02-22T07:30:18;8.90;80.60
70456;DHT22;57916;51.996;5.180;2023-02-22T07:32:46;8.80;80.50
70456;DHT22;57916;51.996;5.180;2023-02-22T07:35:19;8.80;80.60
70456;DHT22;57916;51.996;5.180;2023-02-22T07:37:46;8.80;80.60
70456;DHT22;57916;51.996;5.180;2023-02-22T07:40:14;8.90;80.60
70456;DHT22;57916;51.996;5.180;2023-02-22T07:45:22;8.90;80.70
70456;DHT22;57916;51.996;5.180;2023-02-22T07:47:49;8.90;80.80
70456;DHT22;57916;51.996;5.180;2023-02-22T07:50:17;8.90;80.80
70456;DHT22;57916;51.996;5.180;2023-02-22T07:52:49;8.90;80.60
70456;DHT22;57916;51.996;5.180;2023-02-22T07:55:18;8.90;80.70
70456;DHT22;57916;51.996;5.180;2023-02-22T07:57:50;8.90;80.80
70456;DHT22;57916;51.996;5.180;2023-02-22T08:00:27;8.90;80.80
70456;DHT22;57916;51.996;5.180;2023-02-22T08:02:54;8.90;80.70
70456;DHT22;57916;51.996;5.180;2023-02-22T08:05:23;8.90;80.80
70456;DHT22;57916;51.996;5.180;2023-02-22T08:07:51;8.90;80.90
70456;DHT22;57916;51.996;5.180;2023-02-22T08:10:20;8.90;80.90
70456;DHT22;57916;51.996;5.180;2023-02-22T08:12:48;8.90;81.00
70456;DHT22;57916;51.996;5.180;2023-02-22T08:15:18;9.00;80.90
70456;DHT22;57916;51.996;5.180;2023-02-22T08:17:45;9.10;81.10
70456;DHT22;57916;51.996;5.180;2023-02-22T08:20:12;9.10;81.00
70456;DHT22;57916;51.996;5.180;2023-02-22T08:22:42;9.20;80.90
70456;DHT22;57916;51.996;5.180;2023-02-22T08:25:10;9.20;80.70
70456;DHT22;57916;51.996;5.180;2023-02-22T08:27:36;9.20;80.70
70456;DHT22;57916;51.996;5.180;2023-02-22T08:30:04;9.10;80.50
70456;DHT22;57916;51.996;5.180;2023-02-22T08:32:32;9.20;80.50
70456;DHT22;57916;51.996;5.180;2023-02-22T08:34:59;9.10;80.50
70456;DHT22;57916;51.996;5.180;2023-02-22T08:37:27;9.10;80.80
70456;DHT22;57916;51.996;5.180;2023-02-22T08:39:54;9.10;80.90
70456;DHT22;57916;51.996;5.180;2023-02-22T08:42:21;9.30;80.90
70456;DHT22;57916;51.996;5.180;2023-02-22T08:44:48;9.30;80.90
70456;DHT22;57916;51.996;5.180;2023-02-22T08:47:15;9.40;80.80
70456;DHT22;57916;51.996;5.180;2023-02-22T08:49:42;9.40;80.60
70456;DHT22;57916;51.996;5.180;2023-02-22T08:52:09;9.40;80.70
70456;DHT22;57916;51.996;5.180;2023-02-22T08:54:36;9.50;80.50
70456;DHT22;57916;51.996;5.180;2023-02-22T08:57:02;9.50;80.50
70456;DHT22;57916;51.996;5.180;2023-02-22T08:59:29;9.50;80.40
70456;DHT22;57916;51.996;5.180;2023-02-22T09:01:56;9.60;80.30
70456;DHT22;57916;51.996;5.180;2023-02-22T09:04:23;9.60;80.10
70456;DHT22;57916;51.996;5.180;2023-02-22T09:06:50;9.70;80.20
70456;DHT22;57916;51.996;5.180;2023-02-22T09:09:18;9.70;80.00
70456;DHT22;57916;51.996;5.180;2023-02-22T09:11:47;9.70;79.90
70456;DHT22;57916;51.996;5.180;2023-02-22T09:14:14;9.70;79.80
70456;DHT22;57916;51.996;5.180;2023-02-22T09:16:43;9.70;79.80
70456;DHT22;57916;51.996;5.180;2023-02-22T09:19:11;9.80;80.00
70456;DHT22;57916;51.996;5.180;2023-02-22T09:21:38;9.90;79.90
70456;DHT22;57916;51.996;5.180;2023-02-22T09:24:06;9.90;79.40
70456;DHT22;57916;51.996;5.180;2023-02-22T09:26:35;9.90;79.40
70456;DHT22;57916;51.996;5.180;2023-02-22T09:29:08;10.00;79.40
70456;DHT22;57916;51.996;5.180;2023-02-22T09:31:37;10.00;79.30
70456;DHT22;57916;51.996;5.180;2023-02-22T09:34:05;10.10;79.40
70456;DHT22;57916;51.996;5.180;2023-02-22T09:36:40;10.10;79.30
70456;DHT22;57916;51.996;5.180;2023-02-22T09:39:07;10.20;79.30
70456;DHT22;57916;51.996;5.180;2023-02-22T09:47:03;10.40;78.70
70456;DHT22;57916;51.996;5.180;2023-02-22T09:49:35;10.40;78.40
70456;DHT22;57916;51.996;5.180;2023-02-22T09:55:41;10.50;78.20
70456;DHT22;57916;51.996;5.180;2023-02-22T09:58:21;10.50;78.20
70456;DHT22;57916;51.996;5.180;2023-02-22T10:00:56;10.50;78.10
70456;DHT22;57916;51.996;5.180;2023-02-22T10:03:52;10.60;78.10
70456;DHT22;57916;51.996;5.180;2023-02-22T10:06:23;10.70;77.80
70456;DHT22;57916;51.996;5.180;2023-02-22T10:08:57;10.80;77.50
70456;DHT22;57916;51.996;5.180;2023-02-22T10:11:39;10.90;77.00
70456;DHT22;57916;51.996;5.180;2023-02-22T10:17:28;11.00;76.50
70456;DHT22;57916;51.996;5.180;2023-02-22T10:22:57;11.10;76.20
70456;DHT22;57916;51.996;5.180;2023-02-22T10:25:28;11.20;76.20
70456;DHT22;57916;51.996;5.180;2023-02-22T10:28:02;11.20;76.10
70456;DHT22;57916;51.996;5.180;2023-02-22T10:30:50;11.20;76.10
70456;DHT22;57916;51.996;5.180;2023-02-22T10:33:23;11.20;76.20
70456;DHT22;57916;51.996;5.180;2023-02-22T10:35:53;11.30;76.10
70456;DHT22;57916;51.996;5.180;2023-02-22T10:38:31;11.30;75.70
70456;DHT22;57916;51.996;5.180;2023-02-22T10:41:02;11.30;75.40
70456;DHT22;57916;51.996;5.180;2023-02-22T10:43:39;11.30;75.50
70456;DHT22;57916;51.996;5.180;2023-02-22T10:46:10;11.30;75.30
70456;DHT22;57916;51.996;5.180;2023-02-22T10:48:41;11.40;75.40
70456;DHT22;57916;51.996;5.180;2023-02-22T10:51:10;11.50;75.10
70456;DHT22;57916;51.996;5.180;2023-02-22T10:53:37;11.60;75.10
70456;DHT22;57916;51.996;5.180;2023-02-22T10:58:57;11.60;74.60
70456;DHT22;57916;51.996;5.180;2023-02-22T11:04:11;11.60;74.90
70456;DHT22;57916;51.996;5.180;2023-02-22T11:06:41;11.60;74.60
70456;DHT22;57916;51.996;5.180;2023-02-22T11:09:13;11.60;75.10
70456;DHT22;57916;51.996;5.180;2023-02-22T11:11:46;11.70;75.20
70456;DHT22;57916;51.996;5.180;2023-02-22T11:14:28;11.80;74.90
70456;DHT22;57916;51.996;5.180;2023-02-22T11:16:56;11.80;74.70
70456;DHT22;57916;51.996;5.180;2023-02-22T11:19:28;12.00;74.50
70456;DHT22;57916;51.996;5.180;2023-02-22T11:22:17;12.00;73.70
70456;DHT22;57916;51.996;5.180;2023-02-22T11:24:48;11.90;73.40
70456;DHT22;57916;51.996;5.180;2023-02-22T11:27:29;12.00;73.60
70456;DHT22;57916;51.996;5.180;2023-02-22T11:32:44;12.10;73.10
70456;DHT22;57916;51.996;5.180;2023-02-22T11:35:29;12.10;73.30
70456;DHT22;57916;51.996;5.180;2023-02-22T11:38:30;12.20;73.50
70456;DHT22;57916;51.996;5.180;2023-02-22T11:43:45;12.20;73.50
70456;DHT22;57916;51.996;5.180;2023-02-22T11:48:54;12.20;72.70
70456;DHT22;57916;51.996;5.180;2023-02-22T12:05:05;12.20;72.90
70456;DHT22;57916;51.996;5.180;2023-02-22T12:07:50;12.30;73.30
70456;DHT22;57916;51.996;5.180;2023-02-22T12:11:10;12.30;73.00
70456;DHT22;57916;51.996;5.180;2023-02-22T12:17:01;12.50;72.70
70456;DHT22;57916;51.996;5.180;2023-02-22T12:19:34;12.60;73.00
70456;DHT22;57916;51.996;5.180;2023-02-22T12:24:59;12.80;72.00
70456;DHT22;57916;51.996;5.180;2023-02-22T12:27:40;12.90;72.30
70456;DHT22;57916;51.996;5.180;2023-02-22T12:32:52;13.00;70.70
70456;DHT22;57916;51.996;5.180;2023-02-22T12:35:41;13.00;70.30
70456;DHT22;57916;51.996;5.180;2023-02-22T12:38:32;13.10;70.50
70456;DHT22;57916;51.996;5.180;2023-02-22T12:41:07;13.20;70.40
70456;DHT22;57916;51.996;5.180;2023-02-22T12:43:45;13.30;69.60
70456;DHT22;57916;51.996;5.180;2023-02-22T12:49:14;13.30;69.40
70456;DHT22;57916;51.996;5.180;2023-02-22T12:52:09;13.40;69.60
70456;DHT22;57916;51.996;5.180;2023-02-22T13:01:04;13.50;69.10
70456;DHT22;57916;51.996;5.180;2023-02-22T13:03:40;13.40;68.40
70456;DHT22;57916;51.996;5.180;2023-02-22T13:20:16;13.50;68.80
70456;DHT22;57916;51.996;5.180;2023-02-22T13:22:50;13.50;69.00
70456;DHT22;57916;51.996;5.180;2023-02-22T13:25:23;13.60;69.20
70456;DHT22;57916;51.996;5.180;2023-02-22T13:30:40;13.70;69.00
70456;DHT22;57916;51.996;5.180;2023-02-22T13:36:03;13.70;69.20
70456;DHT22;57916;51.996;5.180;2023-02-22T13:42:05;13.80;68.80
70456;DHT22;57916;51.996;5.180;2023-02-22T13:47:48;13.90;69.10
70456;DHT22;57916;51.996;5.180;2023-02-22T13:53:35;13.90;69.40
70456;DHT22;57916;51.996;5.180;2023-02-22T13:56:04;13.90;68.90
70456;DHT22;57916;51.996;5.180;2023-02-22T13:58:46;14.00;68.80
70456;DHT22;57916;51.996;5.180;2023-02-22T14:01:49;14.00;69.10
70456;DHT22;57916;51.996;5.180;2023-02-22T14:09:59;13.90;68.70
70456;DHT22;57916;51.996;5.180;2023-02-22T14:20:31;14.00;68.70
70456;DHT22;57916;51.996;5.180;2023-02-22T14:23:35;13.90;68.70
70456;DHT22;57916;51.996;5.180;2023-02-22T14:26:10;14.00;68.90
70456;DHT22;57916;51.996;5.180;2023-02-22T14:34:14;14.10;68.70
70456;DHT22;57916;51.996;5.180;2023-02-22T14:39:31;14.20;68.80
70456;DHT22;57916;51.996;5.180;2023-02-22T14:47:55;14.20;68.30
70456;DHT22;57916;51.996;5.180;2023-02-22T14:50:43;14.20;68.30
70456;DHT22;57916;51.996;5.180;2023-02-22T14:53:36;14.10;68.30
70456;DHT22;57916;51.996;5.180;2023-02-22T14:56:13;14.10;68.50
70456;DHT22;57916;51.996;5.180;2023-02-22T14:58:52;14.10;69.10
70456;DHT22;57916;51.996;5.180;2023-02-22T15:01:21;14.10;69.10
70456;DHT22;57916;51.996;5.180;2023-02-22T15:03:56;14.10;69.10
70456;DHT22;57916;51.996;5.180;2023-02-22T15:06:33;14.10;69.20
70456;DHT22;57916;51.996;5.180;2023-02-22T15:09:16;14.10;69.40
70456;DHT22;57916;51.996;5.180;2023-02-22T15:14:33;14.10;69.60
70456;DHT22;57916;51.996;5.180;2023-02-22T15:17:20;14.10;69.60
70456;DHT22;57916;51.996;5.180;2023-02-22T15:19:48;14.10;69.40
70456;DHT22;57916;51.996;5.180;2023-02-22T15:22:24;14.10;69.40
70456;DHT22;57916;51.996;5.180;2023-02-22T15:25:10;14.10;69.30
70456;DHT22;57916;51.996;5.180;2023-02-22T15:27:41;14.10;69.20
70456;DHT22;57916;51.996;5.180;2023-02-22T15:30:25;14.10;69.30
70456;DHT22;57916;51.996;5.180;2023-02-22T15:32:52;14.10;69.40
70456;DHT22;57916;51.996;5.180;2023-02-22T15:35:31;14.10;69.60
70456;DHT22;57916;51.996;5.180;2023-02-22T15:40:39;14.10;69.60
70456;DHT22;57916;51.996;5.180;2023-02-22T15:43:20;14.10;69.60
70456;DHT22;57916;51.996;5.180;2023-02-22T15:45:51;14.10;69.70
70456;DHT22;57916;51.996;5.180;2023-02-22T15:48:18;14.00;69.50
70456;DHT22;57916;51.996;5.180;2023-02-22T15:51:09;14.00;69.50
70456;DHT22;57916;51.996;5.180;2023-02-22T15:53:41;14.00;69.80
70456;DHT22;57916;51.996;5.180;2023-02-22T15:56:15;13.90;69.80
70456;DHT22;57916;51.996;5.180;2023-02-22T15:58:45;13.90;69.90
70456;DHT22;57916;51.996;5.180;2023-02-22T16:01:14;13.90;70.00
70456;DHT22;57916;51.996;5.180;2023-02-22T16:03:56;13.80;70.00
70456;DHT22;57916;51.996;5.180;2023-02-22T16:06:36;13.80;70.00
70456;DHT22;57916;51.996;5.180;2023-02-22T16:09:11;13.80;70.20
70456;DHT22;57916;51.996;5.180;2023-02-22T16:11:41;13.80;70.20
70456;DHT22;57916;51.996;5.180;2023-02-22T16:14:30;13.80;70.20
70456;DHT22;57916;51.996;5.180;2023-02-22T16:19:42;13.80;70.20
70456;DHT22;57916;51.996;5.180;2023-02-22T16:22:31;13.80;70.00
70456;DHT22;57916;51.996;5.180;2023-02-22T16:27:45;13.70;70.20
70456;DHT22;57916;51.996;5.180;2023-02-22T16:32:59;13.70;70.50
70456;DHT22;57916;51.996;5.180;2023-02-22T16:35:31;13.70;70.60
70456;DHT22;57916;51.996;5.180;2023-02-22T16:38:07;13.60;70.60
70456;DHT22;57916;51.996;5.180;2023-02-22T16:40:50;13.60;70.70
70456;DHT22;57916;51.996;5.180;2023-02-22T16:43:24;13.60;70.70
70456;DHT22;57916;51.996;5.180;2023-02-22T16:45:53;13.60;70.60
70456;DHT22;57916;51.996;5.180;2023-02-22T16:48:24;13.60;70.60
70456;DHT22;57916;51.996;5.180;2023-02-22T16:50:53;13.60;70.70
70456;DHT22;57916;51.996;5.180;2023-02-22T16:53:22;13.60;70.80
70456;DHT22;57916;51.996;5.180;2023-02-22T16:55:51;13.50;70.80
70456;DHT22;57916;51.996;5.180;2023-02-22T16:58:24;13.50;70.90
70456;DHT22;57916;51.996;5.180;2023-02-22T17:00:55;13.50;70.70
70456;DHT22;57916;51.996;5.180;2023-02-22T17:03:24;13.50;70.70
70456;DHT22;57916;51.996;5.180;2023-02-22T17:05:52;13.50;70.80
70456;DHT22;57916;51.996;5.180;2023-02-22T17:08:19;13.50;70.80
70456;DHT22;57916;51.996;5.180;2023-02-22T17:10:46;13.40;70.70
70456;DHT22;57916;51.996;5.180;2023-02-22T17:13:22;13.40;70.80
70456;DHT22;57916;51.996;5.180;2023-02-22T17:15:52;13.50;70.80
70456;DHT22;57916;51.996;5.180;2023-02-22T17:18:24;13.50;70.90
70456;DHT22;57916;51.996;5.180;2023-02-22T17:20:54;13.50;70.90
70456;DHT22;57916;51.996;5.180;2023-02-22T17:23:22;13.50;71.00
70456;DHT22;57916;51.996;5.180;2023-02-22T17:25:52;13.50;70.90
70456;DHT22;57916;51.996;5.180;2023-02-22T17:28:20;13.50;70.90
70456;DHT22;57916;51.996;5.180;2023-02-22T17:30:47;13.60;70.90
70456;DHT22;57916;51.996;5.180;2023-02-22T17:33:17;13.60;71.00
70456;DHT22;57916;51.996;5.180;2023-02-22T17:35:45;13.50;70.90
70456;DHT22;57916;51.996;5.180;2023-02-22T17:38:13;13.60;70.90
70456;DHT22;57916;51.996;5.180;2023-02-22T17:40:45;13.60;71.10
70456;DHT22;57916;51.996;5.180;2023-02-22T17:43:20;13.60;71.20
70456;DHT22;57916;51.996;5.180;2023-02-22T17:45:48;13.60;71.20
70456;DHT22;57916;51.996;5.180;2023-02-22T17:48:16;13.60;71.30
70456;DHT22;57916;51.996;5.180;2023-02-22T17:50:45;13.60;71.30
70456;DHT22;57916;51.996;5.180;2023-02-22T17:53:12;13.60;71.50
70456;DHT22;57916;51.996;5.180;2023-02-22T17:55:41;13.50;71.60
70456;DHT22;57916;51.996;5.180;2023-02-22T17:58:09;13.50;71.70
70456;DHT22;57916;51.996;5.180;2023-02-22T18:00:43;13.50;71.80
70456;DHT22;57916;51.996;5.180;2023-02-22T18:03:16;13.50;71.90
70456;DHT22;57916;51.996;5.180;2023-02-22T18:05:48;13.50;72.00
70456;DHT22;57916;51.996;5.180;2023-02-22T18:08:16;13.50;72.20
70456;DHT22;57916;51.996;5.180;2023-02-22T18:10:43;13.50;72.50
70456;DHT22;57916;51.996;5.180;2023-02-22T18:13:14;13.50;72.60
70456;DHT22;57916;51.996;5.180;2023-02-22T18:15:44;13.40;72.70
70456;DHT22;57916;51.996;5.180;2023-02-22T18:18:11;13.40;72.80
70456;DHT22;57916;51.996;5.180;2023-02-22T18:20:43;13.40;73.00
70456;DHT22;57916;51.996;5.180;2023-02-22T18:23:16;13.40;73.00
70456;DHT22;57916;51.996;5.180;2023-02-22T18:25:50;13.40;73.00
70456;DHT22;57916;51.996;5.180;2023-02-22T18:28:36;13.40;73.20
70456;DHT22;57916;51.996;5.180;2023-02-22T18:31:08;13.40;73.20
70456;DHT22;57916;51.996;5.180;2023-02-22T18:33:36;13.40;73.20
70456;DHT22;57916;51.996;5.180;2023-02-22T18:36:03;13.40;73.30
70456;DHT22;57916;51.996;5.180;2023-02-22T18:38:30;13.40;73.30
70456;DHT22;57916;51.996;5.180;2023-02-22T18:41:00;13.40;73.40
70456;DHT22;57916;51.996;5.180;2023-02-22T18:43:28;13.40;73.30
70456;DHT22;57916;51.996;5.180;2023-02-22T18:46:04;13.40;73.30
70456;DHT22;57916;51.996;5.180;2023-02-22T18:48:31;13.40;73.30
70456;DHT22;57916;51.996;5.180;2023-02-22T18:50:59;13.40;73.30
70456;DHT22;57916;51.996;5.180;2023-02-22T18:53:30;13.40;73.40
70456;DHT22;57916;51.996;5.180;2023-02-22T18:56:12;13.40;73.40
70456;DHT22;57916;51.996;5.180;2023-02-22T18:58:40;13.30;73.50